createdAt,value
2022-12-20T00:00:42.803Z,-2.35
2022-12-20T00:03:40.370Z,-2.19
2022-12-20T00:06:28.356Z,-2.09
2022-12-20T00:09:14.965Z,-2.24
2022-12-20T00:12:05.945Z,-2.27
2022-12-20T00:14:50.212Z,-2.19
2022-12-20T00:17:37.802Z,-2.14
2022-12-20T00:20:32.924Z,-2.05
2022-12-20T00:23:24.245Z,-1.95
2022-12-20T00:26:20.142Z,-1.91
2022-12-20T00:29:16.059Z,-1.99
2022-12-20T00:31:56.875Z,-2.02
2022-12-20T00:34:48.631Z,-1.95
2022-12-20T00:37:28.710Z,-1.94
2022-12-20T00:40:20.774Z,-1.86
2022-12-20T00:43:08.229Z,-1.89
2022-12-20T00:45:51.039Z,-1.82
2022-12-20T00:48:38.724Z,-1.93
2022-12-20T00:51:42.727Z,-1.87
2022-12-20T00:54:35.041Z,-1.85
2022-12-20T00:57:16.741Z,-1.99
2022-12-20T00:59:49.400Z,-1.96
2022-12-20T01:02:36.900Z,-1.90
2022-12-20T01:05:25.405Z,-2.02
2022-12-20T01:08:25.199Z,-1.94
2022-12-20T01:11:50.522Z,-1.92
2022-12-20T01:14:32.127Z,-1.92
2022-12-20T01:17:21.265Z,-1.92
2022-12-20T01:20:09.758Z,-1.91
2022-12-20T01:23:01.825Z,-1.97
2022-12-20T01:25:55.641Z,-2.03
2022-12-20T01:28:52.780Z,-2.03
2022-12-20T01:31:38.959Z,-2.03
2022-12-20T01:34:25.180Z,-1.90
2022-12-20T01:37:11.925Z,-1.80
2022-12-20T01:39:58.270Z,-1.89
2022-12-20T01:42:40.322Z,-1.82
2022-12-20T01:45:35.394Z,-1.92
2022-12-20T01:48:31.249Z,-1.89
2022-12-20T01:51:15.458Z,-1.99
2022-12-20T01:54:01.695Z,-1.87
2022-12-20T01:56:55.199Z,-1.83
2022-12-20T01:59:50.102Z,-1.92
2022-12-20T02:02:34.959Z,-1.89
2022-12-20T02:05:26.085Z,-1.92
2022-12-20T02:08:18.515Z,-1.86
2022-12-20T02:11:23.965Z,-1.84
2022-12-20T02:14:20.654Z,-1.90
2022-12-20T02:17:36.510Z,-1.89
2022-12-20T02:20:38.651Z,-1.77
2022-12-20T02:23:53.827Z,-1.88
2022-12-20T02:27:33.387Z,-1.92
2022-12-20T02:30:34.285Z,-1.97
2022-12-20T02:33:20.526Z,-1.93
2022-12-20T02:36:02.456Z,-1.94
2022-12-20T02:38:52.919Z,-1.80
2022-12-20T02:45:03.275Z,-1.80
2022-12-20T02:48:17.875Z,-1.84
2022-12-20T02:51:03.917Z,-1.77
2022-12-20T02:53:53.457Z,-1.73
2022-12-20T02:56:45.846Z,-1.80
2022-12-20T02:59:47.765Z,-1.84
2022-12-20T03:02:49.950Z,-1.79
2022-12-20T03:05:46.796Z,-1.81
2022-12-20T03:08:36.851Z,-1.97
2022-12-20T03:11:23.876Z,-1.80
2022-12-20T03:14:15.831Z,-1.83
2022-12-20T03:17:00.747Z,-1.84
2022-12-20T03:19:44.485Z,-1.82
2022-12-20T03:22:37.178Z,-1.87
2022-12-20T03:25:26.137Z,-1.99
2022-12-20T03:28:15.072Z,-1.90
2022-12-20T03:31:03.700Z,-1.83
2022-12-20T03:33:47.274Z,-1.81
2022-12-20T03:36:35.938Z,-1.93
2022-12-20T03:39:35.330Z,-1.93
2022-12-20T03:42:21.017Z,-2.01
2022-12-20T03:45:10.064Z,-2.15
2022-12-20T03:47:54.588Z,-2.09
2022-12-20T03:50:40.796Z,-1.99
2022-12-20T03:53:22.581Z,-2.00
2022-12-20T03:56:14.221Z,-2.05
2022-12-20T03:59:11.147Z,-2.01
2022-12-20T04:02:00.382Z,-2.03
2022-12-20T04:04:48.262Z,-2.07
2022-12-20T04:07:32.197Z,-2.06
2022-12-20T04:10:21.477Z,-2.03
2022-12-20T04:13:02.393Z,-2.14
2022-12-20T04:16:10.292Z,-2.05
2022-12-20T04:19:02.787Z,-2.08
2022-12-20T04:22:05.121Z,-2.01
2022-12-20T04:24:58.803Z,-1.93
2022-12-20T04:27:41.264Z,-1.91
2022-12-20T04:30:26.699Z,-1.84
2022-12-20T04:33:15.554Z,-1.91
2022-12-20T04:35:54.383Z,-1.83
2022-12-20T04:38:41.489Z,-1.71
2022-12-20T04:41:27.481Z,-1.72
2022-12-20T04:44:16.795Z,-1.64
2022-12-20T04:47:10.282Z,-1.72
2022-12-20T04:49:56.687Z,-1.67
2022-12-20T04:53:05.579Z,-1.77
2022-12-20T04:55:52.191Z,-1.82
2022-12-20T04:58:56.469Z,-1.68
2022-12-20T05:01:44.815Z,-1.68
2022-12-20T05:04:40.476Z,-1.77
2022-12-20T05:07:35.039Z,-1.79
2022-12-20T05:10:18.860Z,-1.80
2022-12-20T05:13:09.401Z,-1.75
2022-12-20T05:16:00.402Z,-1.83
2022-12-20T05:19:01.099Z,-1.73
2022-12-20T05:22:13.109Z,-1.73
2022-12-20T05:25:14.445Z,-1.78
2022-12-20T05:28:07.137Z,-1.79
2022-12-20T05:30:58.813Z,-1.84
2022-12-20T05:33:41.574Z,-1.89
2022-12-20T05:36:28.913Z,-2.02
2022-12-20T05:39:30.491Z,-1.88
2022-12-20T05:42:29.750Z,-1.95
2022-12-20T05:45:29.702Z,-2.09
2022-12-20T05:48:16.785Z,-2.14
2022-12-20T05:51:12.910Z,-2.03
2022-12-20T05:54:25.797Z,-2.11
2022-12-20T05:57:23.751Z,-2.11
2022-12-20T06:00:18.435Z,-2.11
2022-12-20T06:03:25.043Z,-2.10
2022-12-20T06:06:14.588Z,-2.15
2022-12-20T06:09:04.222Z,-2.20
2022-12-20T06:11:57.582Z,-2.21
2022-12-20T06:14:39.227Z,-2.17
2022-12-20T06:17:21.997Z,-2.21
2022-12-20T06:20:11.042Z,-2.12
2022-12-20T06:23:02.288Z,-2.14
2022-12-20T06:25:59.533Z,-2.23
2022-12-20T06:29:20.982Z,-2.16
2022-12-20T06:32:37.767Z,-2.18
2022-12-20T06:38:34.888Z,-2.12
2022-12-20T06:41:15.701Z,-2.11
2022-12-20T06:43:56.687Z,-2.07
2022-12-20T06:46:37.782Z,-1.94
2022-12-20T06:49:13.044Z,-1.86
2022-12-20T06:52:15.942Z,-1.82
2022-12-20T06:55:15.022Z,-1.88
2022-12-20T06:57:59.767Z,-1.84
2022-12-20T07:00:57.139Z,-1.79
2022-12-20T07:03:46.543Z,-1.66
2022-12-20T07:06:51.650Z,-1.62
2022-12-20T07:09:47.920Z,-1.61
2022-12-20T07:12:56.670Z,-1.61
2022-12-20T07:15:41.646Z,-1.69
2022-12-20T07:18:41.450Z,-1.57
2022-12-20T07:21:31.516Z,-1.46
2022-12-20T07:24:09.538Z,-1.44
2022-12-20T07:26:59.780Z,-1.28
2022-12-20T07:29:51.667Z,-1.29
2022-12-20T07:32:30.043Z,-1.37
2022-12-20T07:35:08.937Z,-1.28
2022-12-20T07:37:53.113Z,-1.18
2022-12-20T07:40:51.113Z,-1.16
2022-12-20T07:43:44.605Z,-1.10
2022-12-20T07:46:34.945Z,-1.19
2022-12-20T07:49:19.570Z,-1.16
2022-12-20T07:52:07.880Z,-1.08
2022-12-20T07:55:07.608Z,-1.08
2022-12-20T07:58:03.721Z,-0.99
2022-12-20T08:00:51.993Z,-0.84
2022-12-20T08:03:54.729Z,-0.88
2022-12-20T08:06:45.611Z,-0.74
2022-12-20T08:09:31.740Z,-0.67
2022-12-20T08:12:19.358Z,-0.64
2022-12-20T08:14:56.712Z,-0.54
2022-12-20T08:17:43.611Z,-0.58
2022-12-20T08:20:22.107Z,-0.46
2022-12-20T08:23:06.553Z,-0.50
2022-12-20T08:25:55.918Z,-0.42
2022-12-20T08:28:39.850Z,-0.32
2022-12-20T08:31:24.249Z,-0.29
2022-12-20T08:34:10.849Z,-0.33
2022-12-20T08:36:57.081Z,-0.22
2022-12-20T08:39:39.397Z,-0.26
2022-12-20T08:42:43.150Z,-0.15
2022-12-20T08:45:28.746Z,-0.01
2022-12-20T08:48:31.807Z,-0.03
2022-12-20T08:51:16.573Z,0.27
2022-12-20T08:54:07.401Z,0.18
2022-12-20T08:56:48.848Z,0.45
2022-12-20T08:59:36.209Z,0.42
2022-12-20T09:02:14.050Z,0.63
2022-12-20T09:05:12.953Z,0.70
2022-12-20T09:08:07.655Z,0.74
2022-12-20T09:10:55.251Z,0.90
2022-12-20T09:13:44.287Z,0.74
2022-12-20T09:16:35.272Z,0.89
2022-12-20T09:19:23.175Z,1.03
2022-12-20T09:22:17.007Z,1.11
2022-12-20T09:25:00.370Z,1.08
2022-12-20T09:27:47.706Z,1.06
2022-12-20T09:30:38.633Z,1.12
2022-12-20T09:33:19.965Z,1.09
2022-12-20T09:36:00.392Z,1.21
2022-12-20T09:38:52.567Z,1.20
2022-12-20T09:41:44.319Z,1.31
2022-12-20T09:45:00.611Z,1.47
2022-12-20T09:47:52.576Z,1.48
2022-12-20T09:50:58.395Z,1.61
2022-12-20T09:54:07.650Z,1.72
2022-12-20T09:57:07.017Z,1.69
2022-12-20T09:59:53.292Z,1.73
2022-12-20T10:02:57.049Z,1.73
2022-12-20T10:05:54.980Z,1.67
2022-12-20T10:08:50.078Z,1.85
2022-12-20T10:11:52.791Z,1.96
2022-12-20T10:14:47.719Z,1.85
2022-12-20T10:17:39.588Z,1.93
2022-12-20T10:20:58.850Z,2.15
2022-12-20T10:24:30.165Z,2.15
2022-12-20T10:27:24.817Z,2.19
2022-12-20T10:30:16.169Z,2.35
2022-12-20T10:32:58.579Z,2.44
2022-12-20T10:35:46.819Z,2.45
2022-12-20T10:38:26.953Z,2.26
2022-12-20T10:41:21.333Z,2.23
2022-12-20T10:44:36.379Z,2.26
2022-12-20T10:47:50.111Z,2.46
2022-12-20T10:50:32.072Z,2.50
2022-12-20T10:53:35.648Z,2.68
2022-12-20T10:56:31.891Z,2.59
2022-12-20T10:59:26.869Z,2.63
2022-12-20T11:02:06.004Z,2.44
2022-12-20T11:05:00.685Z,2.27
2022-12-20T11:07:38.741Z,2.32
2022-12-20T11:10:42.023Z,2.34
2022-12-20T11:13:32.727Z,2.34
2022-12-20T11:16:35.591Z,2.46
2022-12-20T11:19:27.142Z,2.56
2022-12-20T11:22:22.834Z,2.56
2022-12-20T11:25:39.777Z,2.48
2022-12-20T11:28:39.964Z,2.67
2022-12-20T11:32:00.253Z,2.54
2022-12-20T11:34:56.041Z,2.40
2022-12-20T11:37:55.390Z,2.55
2022-12-20T11:41:11.691Z,2.42
2022-12-20T11:47:32.828Z,2.42
2022-12-20T11:50:47.844Z,2.43
2022-12-20T11:53:57.437Z,2.44
2022-12-20T11:56:43.579Z,2.54
2022-12-20T11:59:52.185Z,2.73
2022-12-20T12:03:12.085Z,2.80
2022-12-20T12:06:16.224Z,2.87
2022-12-20T12:09:10.987Z,2.99
2022-12-20T12:12:21.354Z,2.95
2022-12-20T12:15:17.618Z,2.98
2022-12-20T12:18:19.718Z,2.82
2022-12-20T12:21:24.669Z,2.67
2022-12-20T12:24:25.413Z,2.65
2022-12-20T12:27:16.261Z,2.67
2022-12-20T12:29:46.761Z,2.40
2022-12-20T12:32:46.956Z,2.44
2022-12-20T12:35:44.055Z,2.36
2022-12-20T12:38:39.853Z,2.42
2022-12-20T12:41:52.277Z,2.45
2022-12-20T12:44:39.571Z,2.46
2022-12-20T12:47:43.519Z,2.34
2022-12-20T12:50:39.775Z,2.31
2022-12-20T12:53:39.642Z,2.24
2022-12-20T12:57:04.785Z,2.12
2022-12-20T12:59:58.630Z,2.18
2022-12-20T13:02:53.948Z,2.19
2022-12-20T13:05:37.690Z,2.13
2022-12-20T13:08:21.787Z,2.26
2022-12-20T13:11:14.819Z,2.02
2022-12-20T13:13:50.607Z,2.10
2022-12-20T13:20:05.772Z,1.93
2022-12-20T13:22:46.090Z,1.71
2022-12-20T13:25:39.711Z,1.71
2022-12-20T13:28:47.963Z,1.60
2022-12-20T13:31:43.413Z,1.59
2022-12-20T13:34:42.405Z,1.57
2022-12-20T13:38:06.155Z,1.59
2022-12-20T13:40:45.060Z,1.36
2022-12-20T13:43:44.474Z,1.18
2022-12-20T13:46:45.842Z,1.08
2022-12-20T13:49:49.116Z,1.17
2022-12-20T13:52:41.646Z,0.91
2022-12-20T13:56:00.137Z,0.94
2022-12-20T13:59:07.575Z,0.91
2022-12-20T14:01:57.460Z,0.78
2022-12-20T14:04:59.380Z,0.73
2022-12-20T14:07:52.793Z,0.70
2022-12-20T14:10:29.110Z,0.74
2022-12-20T14:13:25.902Z,0.63
2022-12-20T14:16:29.008Z,0.69
2022-12-20T14:19:13.753Z,0.60
2022-12-20T14:21:59.889Z,0.58
2022-12-20T14:24:51.910Z,0.59
2022-12-20T14:27:47.649Z,0.43
2022-12-20T14:31:06.245Z,0.34
2022-12-20T14:33:50.612Z,0.42
2022-12-20T14:36:32.751Z,0.39
2022-12-20T14:39:36.177Z,0.22
2022-12-20T14:42:20.273Z,0.35
2022-12-20T14:45:24.560Z,0.29
2022-12-20T14:48:12.338Z,0.19
2022-12-20T14:50:56.927Z,0.12
2022-12-20T14:53:39.266Z,-0.01
2022-12-20T14:56:31.699Z,0.06
2022-12-20T14:59:43.482Z,0.04
2022-12-20T15:02:39.978Z,-0.01
2022-12-20T15:05:54.169Z,-0.06
2022-12-20T15:08:33.720Z,-0.06
2022-12-20T15:11:23.037Z,0.00
2022-12-20T15:14:02.441Z,-0.01
2022-12-20T15:16:55.333Z,-0.05
2022-12-20T15:19:38.877Z,0.07
2022-12-20T15:22:50.092Z,-0.10
2022-12-20T15:25:45.165Z,-0.02
2022-12-20T15:28:40.534Z,-0.03
2022-12-20T15:31:34.327Z,-0.04
2022-12-20T15:34:25.657Z,-0.01
2022-12-20T15:37:06.473Z,-0.08
2022-12-20T15:39:45.625Z,0.02
2022-12-20T15:45:37.676Z,-0.02
2022-12-20T15:48:24.717Z,-0.12
2022-12-20T15:51:21.423Z,-0.01
2022-12-20T15:54:05.470Z,0.03
2022-12-20T15:56:49.080Z,0.05
2022-12-20T16:02:40.520Z,0.01
2022-12-20T16:05:36.521Z,-0.08
2022-12-20T16:08:11.767Z,-0.08
2022-12-20T16:11:01.051Z,-0.02
2022-12-20T16:13:44.071Z,-0.16
2022-12-20T16:16:26.775Z,-0.06
2022-12-20T16:19:10.934Z,-0.02
2022-12-20T16:22:01.425Z,-0.15
2022-12-20T16:24:53.320Z,-0.12
2022-12-20T16:27:40.130Z,-0.09
2022-12-20T16:30:32.614Z,0.05
2022-12-20T16:33:21.381Z,-0.09
2022-12-20T16:36:05.675Z,-0.15
2022-12-20T16:39:00.698Z,-0.11
2022-12-20T16:41:47.870Z,-0.13
2022-12-20T16:44:33.202Z,-0.11
2022-12-20T16:47:14.834Z,-0.20
2022-12-20T16:50:05.083Z,-0.11
2022-12-20T16:52:38.205Z,-0.07
2022-12-20T16:55:37.695Z,-0.11
2022-12-20T16:58:38.656Z,-0.06
2022-12-20T17:01:38.460Z,-0.15
2022-12-20T17:04:21.494Z,-0.07
2022-12-20T17:07:12.210Z,-0.23
2022-12-20T17:12:52.954Z,-0.07
2022-12-20T17:15:39.169Z,-0.10
2022-12-20T17:18:25.453Z,-0.06
2022-12-20T17:21:01.164Z,-0.01
2022-12-20T17:23:53.754Z,-0.01
2022-12-20T17:26:40.653Z,-0.01
2022-12-20T17:29:21.756Z,-0.03
2022-12-20T17:32:03.091Z,-0.04
2022-12-20T17:34:43.520Z,-0.22
2022-12-20T17:37:32.555Z,-0.16
2022-12-20T17:40:17.153Z,-0.24
2022-12-20T17:42:58.506Z,-0.08
2022-12-20T17:45:48.595Z,-0.01
2022-12-20T17:48:33.917Z,-0.12
2022-12-20T17:51:30.969Z,-0.03
2022-12-20T17:54:09.788Z,-0.13
2022-12-20T17:56:58.056Z,-0.11
2022-12-20T17:59:42.559Z,-0.09
2022-12-20T18:02:37.524Z,-0.15
2022-12-20T18:05:31.470Z,-0.20
2022-12-20T18:08:19.426Z,-0.24
2022-12-20T18:11:07.137Z,-0.23
2022-12-20T18:13:47.953Z,-0.26
2022-12-20T18:16:36.332Z,-0.30
2022-12-20T18:19:21.566Z,-0.30
2022-12-20T18:22:06.666Z,-0.29
2022-12-20T18:24:50.541Z,-0.29
2022-12-20T18:27:30.576Z,-0.33
2022-12-20T18:30:25.711Z,-0.40
2022-12-20T18:33:01.748Z,-0.28
2022-12-20T18:35:49.503Z,-0.26
2022-12-20T18:38:44.808Z,-0.37
2022-12-20T18:41:33.283Z,-0.30
2022-12-20T18:44:43.253Z,-0.28
2022-12-20T18:47:32.482Z,-0.29
2022-12-20T18:50:24.109Z,-0.29
2022-12-20T18:53:14.646Z,-0.27
2022-12-20T18:55:58.378Z,-0.28
2022-12-20T18:58:48.942Z,-0.32
2022-12-20T19:01:50.442Z,-0.36
2022-12-20T19:04:45.312Z,-0.27
2022-12-20T19:07:34.138Z,-0.25
2022-12-20T19:10:22.656Z,-0.30
2022-12-20T19:13:06.117Z,-0.42
2022-12-20T19:15:42.507Z,-0.39
2022-12-20T19:18:25.993Z,-0.31
2022-12-20T19:21:12.959Z,-0.31
2022-12-20T19:24:09.858Z,-0.32
2022-12-20T19:27:01.145Z,-0.22
2022-12-20T19:29:57.710Z,-0.24
2022-12-20T19:32:35.758Z,-0.36
2022-12-20T19:35:52.781Z,-0.34
2022-12-20T19:38:29.817Z,-0.35
2022-12-20T19:41:21.104Z,-0.49
2022-12-20T19:44:06.318Z,-0.45
2022-12-20T19:46:50.081Z,-0.38
2022-12-20T19:49:30.958Z,-0.41
2022-12-20T19:52:29.002Z,-0.44
2022-12-20T19:55:26.867Z,-0.42
2022-12-20T19:58:10.563Z,-0.38
2022-12-20T20:00:55.959Z,-0.36
2022-12-20T20:03:49.253Z,-0.29
2022-12-20T20:06:33.367Z,-0.44
2022-12-20T20:09:20.418Z,-0.37
2022-12-20T20:12:11.608Z,-0.38
2022-12-20T20:14:55.252Z,-0.48
2022-12-20T20:17:42.482Z,-0.32
2022-12-20T20:20:23.242Z,-0.39
2022-12-20T20:23:09.557Z,-0.37
2022-12-20T20:25:58.830Z,-0.34
2022-12-20T20:28:45.099Z,-0.32
2022-12-20T20:31:30.791Z,-0.31
2022-12-20T20:34:10.659Z,-0.25
2022-12-20T20:36:56.902Z,-0.29
2022-12-20T20:39:34.235Z,-0.34
2022-12-20T20:42:23.092Z,-0.28
2022-12-20T20:44:58.835Z,-0.35
2022-12-20T20:47:47.506Z,-0.29
2022-12-20T20:50:28.072Z,-0.37
2022-12-20T20:53:16.074Z,-0.42
2022-12-20T20:55:59.985Z,-0.38
2022-12-20T20:58:39.244Z,-0.30
2022-12-20T21:01:22.584Z,-0.42
2022-12-20T21:04:03.791Z,-0.45
2022-12-20T21:06:49.063Z,-0.43
2022-12-20T21:09:32.266Z,-0.32
2022-12-20T21:12:12.700Z,-0.42
2022-12-20T21:15:21.309Z,-0.41
2022-12-20T21:17:57.154Z,-0.46
2022-12-20T21:20:41.449Z,-0.45
2022-12-20T21:23:20.821Z,-0.25
2022-12-20T21:26:07.854Z,-0.31
2022-12-20T21:28:47.113Z,-0.34
2022-12-20T21:31:33.720Z,-0.27
2022-12-20T21:34:20.627Z,-0.22
2022-12-20T21:37:10.160Z,-0.32
2022-12-20T21:39:53.694Z,-0.31
2022-12-20T21:42:35.616Z,-0.27
2022-12-20T21:45:22.658Z,-0.20
2022-12-20T21:48:04.199Z,-0.20
2022-12-20T21:50:42.555Z,-0.24
2022-12-20T21:53:37.524Z,-0.15
2022-12-20T21:56:24.581Z,-0.18
2022-12-20T21:59:02.700Z,-0.16
2022-12-20T22:01:45.888Z,-0.04
2022-12-20T22:04:29.768Z,-0.02
2022-12-20T22:07:09.163Z,0.01
2022-12-20T22:10:05.882Z,0.00
2022-12-20T22:12:55.432Z,-0.05
2022-12-20T22:15:36.634Z,-0.07
2022-12-20T22:18:15.753Z,-0.13
2022-12-20T22:20:56.740Z,-0.04
2022-12-20T22:23:35.377Z,-0.15
2022-12-20T22:26:17.854Z,-0.14
2022-12-20T22:29:12.208Z,-0.25
2022-12-20T22:31:53.042Z,-0.11
2022-12-20T22:34:43.678Z,-0.06
2022-12-20T22:37:27.569Z,-0.14
2022-12-20T22:40:09.855Z,-0.13
2022-12-20T22:42:57.946Z,-0.12
2022-12-20T22:45:41.731Z,-0.10
2022-12-20T22:48:18.007Z,-0.09
2022-12-20T22:51:21.628Z,-0.04
2022-12-20T22:54:07.366Z,-0.08
2022-12-20T22:56:49.593Z,-0.07
2022-12-20T22:59:43.653Z,-0.04
2022-12-20T23:02:24.678Z,-0.08
2022-12-20T23:05:17.823Z,-0.20
2022-12-20T23:07:55.460Z,-0.18
2022-12-20T23:10:58.138Z,-0.15
2022-12-20T23:13:59.794Z,-0.13
2022-12-20T23:16:43.635Z,-0.10
2022-12-20T23:19:25.668Z,-0.18
2022-12-20T23:22:17.102Z,-0.24
2022-12-20T23:25:02.763Z,-0.14
2022-12-20T23:27:40.548Z,-0.13
2022-12-20T23:30:27.116Z,-0.12
2022-12-20T23:33:15.501Z,-0.14
2022-12-20T23:36:08.195Z,-0.08
2022-12-20T23:38:39.265Z,-0.02
2022-12-20T23:41:26.596Z,-0.08
2022-12-20T23:44:19.956Z,-0.07
2022-12-20T23:47:01.049Z,0.01
2022-12-20T23:49:48.637Z,-0.01
2022-12-20T23:52:29.347Z,0.05
2022-12-20T23:55:07.702Z,0.07
2022-12-20T23:57:48.076Z,0.09
